createdAt,value
2019-02-03T00:00:29.724Z,14.70
2019-02-03T00:01:36.423Z,14.80
2019-02-03T00:02:43.428Z,13.40
2019-02-03T00:03:50.076Z,14.30
2019-02-03T00:04:57.358Z,14.00
2019-02-03T00:06:04.065Z,15.30
2019-02-03T00:07:11.063Z,13.40
2019-02-03T00:08:17.680Z,15.30
2019-02-03T00:09:25.072Z,14.80
2019-02-03T00:10:31.828Z,14.00
2019-02-03T00:11:38.774Z,14.20
2019-02-03T00:12:45.603Z,14.30
2019-02-03T00:13:52.248Z,15.00
2019-02-03T00:14:59.503Z,14.40
2019-02-03T00:16:06.219Z,14.90
2019-02-03T00:17:12.935Z,14.90
2019-02-03T00:18:20.024Z,13.60
2019-02-03T00:19:27.287Z,15.30
2019-02-03T00:20:33.864Z,14.50
2019-02-03T00:21:41.157Z,14.70
2019-02-03T00:22:47.787Z,13.80
2019-02-03T00:23:54.903Z,14.70
2019-02-03T00:25:02.062Z,14.30
2019-02-03T00:26:09.004Z,14.40
2019-02-03T00:27:16.211Z,15.70
2019-02-03T00:28:22.827Z,16.60
2019-02-03T00:29:30.020Z,16.80
2019-02-03T00:30:36.727Z,16.80
2019-02-03T00:31:43.443Z,16.80
2019-02-03T00:32:51.689Z,17.00
2019-02-03T00:33:57.267Z,17.50
2019-02-03T00:35:04.448Z,14.70
2019-02-03T00:36:11.415Z,15.70
2019-02-03T00:37:18.488Z,15.10
2019-02-03T00:38:25.372Z,14.10
2019-02-03T00:39:32.010Z,14.70
2019-02-03T00:40:39.283Z,14.80
2019-02-03T00:41:46.373Z,13.90
2019-02-03T00:42:53.471Z,13.20
2019-02-03T00:44:00.611Z,13.60
2019-02-03T00:45:07.387Z,13.10
2019-02-03T00:46:14.444Z,12.80
2019-02-03T00:47:21.251Z,13.70
2019-02-03T00:48:27.989Z,12.60
2019-02-03T00:49:34.691Z,12.20
2019-02-03T00:50:41.531Z,13.80
2019-02-03T00:51:48.174Z,12.20
2019-02-03T00:52:55.570Z,13.00
2019-02-03T00:54:02.332Z,13.30
2019-02-03T00:55:09.056Z,12.60
2019-02-03T00:56:16.256Z,13.40
2019-02-03T00:57:22.954Z,12.90
2019-02-03T00:58:29.706Z,13.70
2019-02-03T00:59:36.467Z,13.30
2019-02-03T01:00:43.205Z,13.10
2019-02-03T01:01:49.880Z,13.30
2019-02-03T01:02:57.193Z,13.50
2019-02-03T01:04:04.028Z,13.90
2019-02-03T01:05:10.888Z,13.40
2019-02-03T01:06:17.575Z,13.10
2019-02-03T01:07:27.667Z,13.80
2019-02-03T01:08:31.123Z,13.80
2019-02-03T01:09:37.855Z,13.60
2019-02-03T01:10:44.712Z,13.50
2019-02-03T01:11:51.493Z,12.80
2019-02-03T01:12:58.325Z,12.60
2019-02-03T01:14:05.012Z,12.60
2019-02-03T01:15:11.880Z,12.80
2019-02-03T01:16:18.959Z,12.60
2019-02-03T01:17:25.728Z,10.80
2019-02-03T01:18:32.444Z,11.70
2019-02-03T01:19:39.144Z,13.20
2019-02-03T01:20:45.810Z,12.00
2019-02-03T01:21:53.015Z,10.50
2019-02-03T01:23:00.219Z,11.30
2019-02-03T01:24:06.809Z,10.40
2019-02-03T01:25:14.096Z,10.80
2019-02-03T01:26:20.774Z,11.00
2019-02-03T01:27:28.045Z,10.50
2019-02-03T01:28:34.816Z,11.30
2019-02-03T01:29:41.664Z,10.50
2019-02-03T01:30:48.348Z,11.40
2019-02-03T01:31:55.327Z,11.90
2019-02-03T01:33:02.056Z,11.60
2019-02-03T01:34:08.661Z,10.40
2019-02-03T01:35:15.752Z,11.60
2019-02-03T01:36:22.472Z,10.10
2019-02-03T01:37:39.188Z,10.40
2019-02-03T01:38:35.971Z,9.50
2019-02-03T01:39:43.279Z,10.90
2019-02-03T01:40:49.895Z,11.30
2019-02-03T01:41:57.150Z,11.70
2019-02-03T01:43:03.867Z,10.80
2019-02-03T01:44:10.643Z,10.50
2019-02-03T01:45:17.400Z,10.20
2019-02-03T01:46:24.154Z,9.40
2019-02-03T01:47:31.599Z,9.50
2019-02-03T01:48:38.424Z,9.20
2019-02-03T01:49:45.489Z,9.00
2019-02-03T01:50:52.139Z,8.60
2019-02-03T01:51:58.959Z,8.70
2019-02-03T01:53:05.891Z,8.10
2019-02-03T01:54:12.680Z,8.80
2019-02-03T01:55:19.321Z,7.80
2019-02-03T01:56:26.497Z,7.70
2019-02-03T01:57:33.067Z,7.50
2019-02-03T01:58:40.360Z,8.70
2019-02-03T01:59:47.120Z,7.30
2019-02-03T02:00:53.859Z,8.50
2019-02-03T02:02:01.029Z,8.10
2019-02-03T02:03:07.905Z,7.50
2019-02-03T02:04:14.674Z,7.70
2019-02-03T02:05:21.415Z,7.80
2019-02-03T02:06:28.200Z,7.20
2019-02-03T02:07:34.864Z,7.40
2019-02-03T02:08:41.663Z,7.80
2019-02-03T02:09:48.295Z,7.60
2019-02-03T02:10:55.140Z,7.70
2019-02-03T02:12:01.822Z,7.80
2019-02-03T02:13:08.792Z,7.30
2019-02-03T02:14:15.486Z,7.70
2019-02-03T02:15:22.228Z,7.30
2019-02-03T02:16:28.979Z,7.20
2019-02-03T02:17:35.959Z,7.20
2019-02-03T02:18:42.714Z,7.10
2019-02-03T02:19:49.399Z,6.90
2019-02-03T02:20:56.584Z,7.50
2019-02-03T02:22:03.321Z,7.80
2019-02-03T02:23:10.131Z,7.20
2019-02-03T02:24:16.674Z,7.00
2019-02-03T02:25:23.814Z,8.10
2019-02-03T02:26:30.779Z,8.40
2019-02-03T02:27:37.403Z,7.00
2019-02-03T02:28:44.632Z,7.10
2019-02-03T02:29:51.302Z,7.50
2019-02-03T02:30:58.067Z,7.80
2019-02-03T02:32:04.824Z,6.50
2019-02-03T02:33:11.608Z,7.50
2019-02-03T02:34:18.180Z,7.30
2019-02-03T02:35:25.663Z,7.60
2019-02-03T02:36:32.279Z,7.30
2019-02-03T02:37:39.456Z,7.80
2019-02-03T02:38:46.129Z,7.80
2019-02-03T02:39:53.417Z,6.60
2019-02-03T02:41:00.088Z,7.40
2019-02-03T02:42:06.811Z,7.90
2019-02-03T02:43:13.583Z,8.10
2019-02-03T02:44:20.268Z,8.30
2019-02-03T02:45:27.554Z,8.20
2019-02-03T02:46:34.188Z,7.70
2019-02-03T02:47:41.474Z,7.80
2019-02-03T02:48:48.372Z,7.20
2019-02-03T02:49:55.236Z,9.00
2019-02-03T02:51:01.895Z,7.10
2019-02-03T02:52:09.005Z,7.90
2019-02-03T02:53:16.212Z,7.30
2019-02-03T02:54:22.904Z,7.70
2019-02-03T02:55:30.172Z,7.30
2019-02-03T02:56:36.756Z,7.70
2019-02-03T02:57:43.996Z,7.90
2019-02-03T02:58:50.651Z,8.20
2019-02-03T02:59:57.945Z,7.60
2019-02-03T03:01:04.700Z,8.00
2019-02-03T03:02:11.396Z,7.30
2019-02-03T03:03:18.018Z,7.90
2019-02-03T03:04:24.799Z,7.40
2019-02-03T03:05:31.573Z,7.80
2019-02-03T03:06:38.312Z,7.80
2019-02-03T03:07:45.293Z,7.20
2019-02-03T03:08:52.047Z,7.40
2019-02-03T03:09:59.367Z,6.90
2019-02-03T03:11:06.014Z,7.20
2019-02-03T03:12:13.274Z,7.60
2019-02-03T03:13:19.941Z,6.90
2019-02-03T03:14:26.811Z,7.20
2019-02-03T03:15:33.423Z,7.00
2019-02-03T03:16:40.622Z,7.30
2019-02-03T03:17:47.266Z,7.50
2019-02-03T03:18:54.368Z,7.20
2019-02-03T03:20:01.556Z,7.20
2019-02-03T03:21:08.357Z,7.50
2019-02-03T03:22:15.491Z,7.20
2019-02-03T03:23:22.535Z,7.10
2019-02-03T03:24:29.831Z,7.30
2019-02-03T03:25:36.513Z,7.00
2019-02-03T03:26:43.247Z,6.70
2019-02-03T03:27:49.925Z,6.80
2019-02-03T03:28:57.161Z,6.50
2019-02-03T03:30:03.972Z,6.20
2019-02-03T03:31:11.185Z,7.20
2019-02-03T03:32:17.821Z,6.60
2019-02-03T03:33:25.131Z,6.70
2019-02-03T03:34:31.657Z,7.40
2019-02-03T03:35:38.827Z,6.80
2019-02-03T03:36:45.480Z,6.80
2019-02-03T03:37:52.146Z,7.10
2019-02-03T03:38:59.012Z,6.80
2019-02-03T03:40:05.675Z,6.90
2019-02-03T03:41:12.871Z,7.10
2019-02-03T03:42:19.505Z,7.00
2019-02-03T03:43:26.780Z,7.10
2019-02-03T03:44:33.446Z,6.70
2019-02-03T03:45:40.667Z,6.80
2019-02-03T03:46:47.299Z,7.10
2019-02-03T03:47:54.385Z,6.60
2019-02-03T03:49:01.032Z,7.40
2019-02-03T03:50:07.940Z,7.40
2019-02-03T03:51:15.030Z,7.20
2019-02-03T03:52:21.738Z,7.30
2019-02-03T03:53:28.599Z,8.30
2019-02-03T03:54:35.558Z,7.40
2019-02-03T03:55:42.253Z,7.80
2019-02-03T03:56:48.876Z,7.90
2019-02-03T03:57:56.163Z,7.80
2019-02-03T03:59:02.931Z,7.00
2019-02-03T04:00:09.692Z,7.90
2019-02-03T04:01:16.571Z,8.10
2019-02-03T04:02:23.736Z,8.50
2019-02-03T04:03:30.596Z,8.70
2019-02-03T04:04:37.268Z,9.00
2019-02-03T04:05:44.026Z,9.20
2019-02-03T04:06:50.824Z,8.30
2019-02-03T04:07:57.552Z,8.30
2019-02-03T04:09:04.831Z,9.70
2019-02-03T04:10:11.595Z,9.20
2019-02-03T04:11:18.235Z,8.30
2019-02-03T04:12:25.022Z,9.00
2019-02-03T04:13:31.787Z,9.50
2019-02-03T04:14:38.449Z,10.30
2019-02-03T04:15:45.628Z,8.90
2019-02-03T04:16:52.311Z,9.00
2019-02-03T04:17:59.577Z,10.10
2019-02-03T04:19:06.548Z,10.20
2019-02-03T04:20:13.317Z,11.40
2019-02-03T04:21:19.885Z,10.30
2019-02-03T04:22:27.145Z,9.90
2019-02-03T04:23:33.908Z,10.30
2019-02-03T04:24:40.708Z,10.70
2019-02-03T04:25:47.358Z,10.60
2019-02-03T04:26:54.441Z,11.30
2019-02-03T04:28:01.124Z,10.80
2019-02-03T04:29:07.939Z,10.80
2019-02-03T04:30:15.210Z,10.70
2019-02-03T04:31:22.080Z,11.20
2019-02-03T04:32:28.970Z,10.90
2019-02-03T04:33:35.597Z,11.40
2019-02-03T04:34:42.799Z,11.50
2019-02-03T04:35:49.379Z,11.90
2019-02-03T04:36:56.639Z,11.10
2019-02-03T04:38:03.408Z,11.20
2019-02-03T04:39:10.267Z,12.00
2019-02-03T04:40:17.019Z,12.40
2019-02-03T04:41:23.893Z,11.90
2019-02-03T04:42:31.083Z,11.80
2019-02-03T04:43:37.735Z,11.70
2019-02-03T04:44:45.020Z,11.70
2019-02-03T04:45:51.666Z,12.00
2019-02-03T04:46:58.949Z,12.70
2019-02-03T04:48:05.762Z,11.00
2019-02-03T04:49:12.461Z,12.00
2019-02-03T04:50:19.135Z,12.70
2019-02-03T04:51:26.128Z,12.30
2019-02-03T04:52:32.913Z,12.80
2019-02-03T04:53:40.256Z,12.10
2019-02-03T04:54:46.936Z,12.10
2019-02-03T04:55:54.095Z,12.00
2019-02-03T04:57:01.214Z,12.30
2019-02-03T04:58:07.853Z,12.40
2019-02-03T04:59:15.216Z,13.30
2019-02-03T05:00:21.877Z,12.50
2019-02-03T05:01:29.043Z,12.80
2019-02-03T05:02:35.628Z,13.60
2019-02-03T05:03:42.781Z,14.10
2019-02-03T05:04:49.543Z,13.00
2019-02-03T05:05:56.324Z,13.90
2019-02-03T05:07:03.059Z,13.30
2019-02-03T05:08:09.871Z,13.70
2019-02-03T05:09:16.510Z,12.70
2019-02-03T05:10:23.677Z,13.90
2019-02-03T05:11:30.852Z,13.80
2019-02-03T05:12:38.015Z,12.90
2019-02-03T05:13:44.912Z,14.20
2019-02-03T05:14:51.657Z,14.30
2019-02-03T05:15:58.361Z,13.90
2019-02-03T05:17:05.080Z,14.20
2019-02-03T05:18:11.800Z,14.10
2019-02-03T05:19:18.528Z,15.30
2019-02-03T05:20:25.368Z,15.10
2019-02-03T05:21:32.148Z,14.90
2019-02-03T05:22:38.857Z,14.70
2019-02-03T05:23:45.585Z,14.90
2019-02-03T05:24:52.160Z,15.40
2019-02-03T05:25:59.412Z,14.60
2019-02-03T05:27:06.171Z,16.50
2019-02-03T05:28:12.897Z,15.50
2019-02-03T05:29:19.495Z,16.40
2019-02-03T05:30:26.695Z,15.10
2019-02-03T05:31:33.960Z,14.30
2019-02-03T05:32:40.683Z,14.90
2019-02-03T05:33:47.332Z,16.10
2019-02-03T05:34:54.489Z,16.10
2019-02-03T05:36:01.625Z,16.50
2019-02-03T05:37:08.803Z,15.40
2019-02-03T05:38:15.488Z,15.70
2019-02-03T05:39:25.129Z,15.50
2019-02-03T05:40:29.411Z,15.60
2019-02-03T05:41:36.082Z,15.30
2019-02-03T05:42:43.248Z,16.00
2019-02-03T05:43:49.915Z,15.00
2019-02-03T05:44:57.380Z,15.90
2019-02-03T05:46:04.157Z,16.20
2019-02-03T05:47:11.231Z,16.00
2019-02-03T05:48:17.936Z,15.70
2019-02-03T05:49:24.669Z,15.80
2019-02-03T05:50:31.726Z,14.80
2019-02-03T05:51:38.486Z,15.20
2019-02-03T05:52:45.351Z,16.40
2019-02-03T05:53:52.144Z,15.80
2019-02-03T05:54:58.959Z,16.40
2019-02-03T05:56:05.644Z,15.40
2019-02-03T05:57:12.407Z,16.10
2019-02-03T05:58:19.108Z,15.50
2019-02-03T05:59:25.826Z,15.50
2019-02-03T06:00:32.515Z,14.10
2019-02-03T06:01:39.452Z,16.20
2019-02-03T06:02:46.566Z,17.00
2019-02-03T06:03:53.744Z,16.20
2019-02-03T06:05:00.443Z,14.70
2019-02-03T06:06:07.359Z,15.80
2019-02-03T06:07:14.112Z,16.00
2019-02-03T06:08:20.780Z,15.70
2019-02-03T06:09:36.209Z,15.90
2019-02-03T06:10:34.629Z,16.20
2019-02-03T06:11:41.908Z,16.80
2019-02-03T06:12:48.561Z,15.20
2019-02-03T06:13:55.935Z,16.00
2019-02-03T06:15:02.278Z,15.90
2019-02-03T06:16:09.055Z,15.50
2019-02-03T06:17:15.843Z,17.00
2019-02-03T06:18:22.496Z,16.00
2019-02-03T06:19:29.247Z,17.10
2019-02-03T06:20:36.048Z,16.60
2019-02-03T06:21:42.743Z,15.60
2019-02-03T06:22:49.443Z,16.60
2019-02-03T06:23:56.219Z,15.50
2019-02-03T06:25:02.921Z,15.50
2019-02-03T06:26:09.740Z,15.50
2019-02-03T06:27:16.517Z,15.00
2019-02-03T06:28:23.157Z,14.40
2019-02-03T06:29:30.560Z,15.90
2019-02-03T06:30:37.177Z,15.10
2019-02-03T06:31:44.604Z,15.50
2019-02-03T06:32:51.467Z,14.60
2019-02-03T06:33:58.242Z,14.90
2019-02-03T06:35:05.101Z,14.70
2019-02-03T06:36:12.131Z,13.70
2019-02-03T06:37:18.717Z,15.50
2019-02-03T06:38:25.708Z,14.90
2019-02-03T06:39:32.543Z,15.70
2019-02-03T06:40:39.200Z,15.40
2019-02-03T06:41:45.877Z,16.70
2019-02-03T06:42:53.005Z,16.90
2019-02-03T06:44:00.299Z,14.80
2019-02-03T06:45:07.146Z,15.60
2019-02-03T06:46:13.979Z,16.50
2019-02-03T06:47:20.612Z,15.50
2019-02-03T06:48:27.436Z,16.50
2019-02-03T06:49:34.279Z,16.00
2019-02-03T06:50:41.264Z,17.30
2019-02-03T06:51:49.431Z,16.40
2019-02-03T06:52:54.686Z,17.40
2019-02-03T06:54:01.368Z,18.50
2019-02-03T06:55:08.227Z,19.50
2019-02-03T06:56:15.371Z,19.10
2019-02-03T06:57:22.540Z,18.10
2019-02-03T06:58:29.212Z,17.50
2019-02-03T06:59:35.876Z,18.10
2019-02-03T07:00:43.172Z,16.70
2019-02-03T07:01:49.915Z,17.00
2019-02-03T07:02:56.668Z,17.80
2019-02-03T07:04:03.543Z,18.00
2019-02-03T07:05:10.532Z,16.70
2019-02-03T07:06:17.187Z,16.20
2019-02-03T07:07:23.839Z,18.40
2019-02-03T07:08:30.923Z,16.50
2019-02-03T07:09:38.069Z,17.70
2019-02-03T07:10:45.301Z,17.40
2019-02-03T07:11:51.932Z,18.60
2019-02-03T07:12:58.683Z,17.60
2019-02-03T07:14:05.855Z,17.20
2019-02-03T07:15:12.559Z,17.70
2019-02-03T07:16:19.747Z,17.50
2019-02-03T07:17:26.459Z,18.40
2019-02-03T07:18:33.140Z,17.40
2019-02-03T07:19:39.891Z,19.20
2019-02-03T07:20:46.646Z,19.00
2019-02-03T07:21:53.356Z,19.00
2019-02-03T07:23:00.072Z,18.60
2019-02-03T07:24:06.698Z,17.90
2019-02-03T07:25:13.920Z,18.10
2019-02-03T07:26:20.612Z,17.10
2019-02-03T07:27:27.872Z,18.40
2019-02-03T07:28:34.469Z,17.90
2019-02-03T07:29:41.797Z,17.70
2019-02-03T07:30:48.462Z,17.60
2019-02-03T07:31:55.352Z,17.30
2019-02-03T07:33:01.887Z,18.20
2019-02-03T07:34:09.063Z,18.20
2019-02-03T07:35:15.899Z,16.90
2019-02-03T07:36:22.487Z,18.40
2019-02-03T07:37:29.686Z,16.70
2019-02-03T07:38:36.430Z,18.10
2019-02-03T07:39:43.707Z,16.80
2019-02-03T07:40:50.381Z,17.50
2019-02-03T07:41:57.150Z,19.00
2019-02-03T07:43:03.903Z,17.40
2019-02-03T07:44:10.676Z,17.40
2019-02-03T07:45:17.423Z,17.90
2019-02-03T07:46:23.995Z,17.90
2019-02-03T07:47:31.234Z,18.40
2019-02-03T07:48:37.958Z,18.80
2019-02-03T07:49:44.794Z,18.10
2019-02-03T07:50:51.769Z,17.00
2019-02-03T07:51:58.503Z,16.60
2019-02-03T07:53:08.367Z,17.90
2019-02-03T07:54:12.188Z,16.50
2019-02-03T07:55:18.955Z,17.70
2019-02-03T07:56:25.719Z,18.20
2019-02-03T07:57:32.491Z,18.10
2019-02-03T07:58:39.242Z,17.60
2019-02-03T07:59:45.891Z,18.60
2019-02-03T08:00:53.031Z,22.40
2019-02-03T08:02:00.255Z,22.20
2019-02-03T08:03:06.995Z,21.90
2019-02-03T08:04:13.710Z,21.50
2019-02-03T08:05:20.423Z,20.90
2019-02-03T08:06:27.206Z,18.40
2019-02-03T08:07:33.883Z,17.90
2019-02-03T08:08:40.732Z,18.20
2019-02-03T08:09:47.488Z,18.80
2019-02-03T08:10:54.099Z,18.60
2019-02-03T08:12:01.204Z,17.60
2019-02-03T08:13:08.323Z,18.30
2019-02-03T08:14:15.576Z,18.70
2019-02-03T08:15:22.276Z,18.40
2019-02-03T08:16:29.509Z,17.20
2019-02-03T08:17:37.182Z,18.90
2019-02-03T08:18:43.352Z,17.90
2019-02-03T08:19:50.003Z,17.50
2019-02-03T08:20:57.283Z,17.80
2019-02-03T08:22:03.859Z,18.50
2019-02-03T08:23:11.159Z,18.30
2019-02-03T08:24:17.771Z,17.70
2019-02-03T08:25:24.856Z,18.30
2019-02-03T08:26:31.627Z,18.30
2019-02-03T08:27:38.758Z,18.90
2019-02-03T08:28:45.881Z,18.70
2019-02-03T08:29:52.543Z,17.50
2019-02-03T08:30:59.907Z,18.40
2019-02-03T08:32:06.689Z,18.80
2019-02-03T08:33:13.456Z,17.30
2019-02-03T08:34:20.071Z,17.30
2019-02-03T08:35:27.377Z,17.50
2019-02-03T08:36:34.059Z,17.70
2019-02-03T08:37:40.774Z,19.50
2019-02-03T08:38:47.675Z,18.20
2019-02-03T08:39:54.833Z,16.60
2019-02-03T08:41:01.651Z,18.20
2019-02-03T08:42:08.386Z,19.40
2019-02-03T08:43:15.143Z,17.10
2019-02-03T08:44:21.991Z,17.90
2019-02-03T08:45:28.785Z,18.00
2019-02-03T08:46:35.545Z,18.10
2019-02-03T08:47:45.241Z,18.00
2019-02-03T08:48:49.320Z,20.10
2019-02-03T08:49:56.265Z,17.00
2019-02-03T08:51:02.958Z,17.60
2019-02-03T08:52:10.021Z,17.10
2019-02-03T08:53:16.787Z,17.30
2019-02-03T08:54:23.504Z,17.50
2019-02-03T08:55:30.411Z,18.20
2019-02-03T08:56:37.080Z,17.50
2019-02-03T08:57:44.326Z,16.90
2019-02-03T08:58:51.060Z,16.20
2019-02-03T08:59:57.787Z,17.20
2019-02-03T09:01:04.419Z,16.80
2019-02-03T09:02:11.707Z,16.10
2019-02-03T09:03:18.392Z,16.20
2019-02-03T09:04:25.124Z,16.80
2019-02-03T09:05:31.668Z,17.30
2019-02-03T09:06:38.764Z,16.30
2019-02-03T09:07:45.820Z,16.50
2019-02-03T09:08:52.910Z,17.40
2019-02-03T09:10:00.393Z,17.50
2019-02-03T09:11:08.238Z,16.20
2019-02-03T09:12:15.818Z,16.60
2019-02-03T09:13:20.699Z,17.70
2019-02-03T09:14:27.947Z,15.40
2019-02-03T09:15:34.607Z,16.60
2019-02-03T09:16:41.904Z,15.70
2019-02-03T09:17:48.486Z,15.80
2019-02-03T09:18:55.850Z,16.30
2019-02-03T09:20:02.589Z,16.30
2019-02-03T09:21:09.253Z,16.60
2019-02-03T09:22:16.443Z,16.70
2019-02-03T09:23:23.084Z,16.00
2019-02-03T09:24:30.392Z,17.00
2019-02-03T09:25:36.992Z,16.80
2019-02-03T09:26:44.167Z,15.80
2019-02-03T09:27:50.863Z,15.90
2019-02-03T09:28:57.654Z,16.40
2019-02-03T09:30:04.327Z,17.50
2019-02-03T09:31:11.164Z,17.10
2019-02-03T09:32:17.936Z,18.20
2019-02-03T09:33:24.696Z,17.50
2019-02-03T09:34:31.267Z,18.40
2019-02-03T09:35:38.459Z,16.50
2019-02-03T09:36:45.783Z,18.00
2019-02-03T09:37:52.448Z,17.40
2019-02-03T09:38:59.251Z,16.90
2019-02-03T09:40:05.892Z,17.30
2019-02-03T09:41:12.876Z,17.50
2019-02-03T09:42:19.587Z,18.80
2019-02-03T09:43:26.796Z,17.60
2019-02-03T09:44:33.908Z,17.90
2019-02-03T09:45:40.624Z,16.60
2019-02-03T09:46:47.294Z,17.60
2019-02-03T09:47:53.989Z,20.50
2019-02-03T09:49:01.301Z,23.50
2019-02-03T09:50:08.660Z,20.50
2019-02-03T09:51:15.234Z,21.00
2019-02-03T09:52:22.075Z,18.00
2019-02-03T09:53:28.907Z,21.80
2019-02-03T09:54:35.615Z,22.40
2019-02-03T09:55:45.051Z,18.70
2019-02-03T09:56:49.743Z,19.40
2019-02-03T09:57:57.007Z,18.90
2019-02-03T09:59:03.863Z,17.60
2019-02-03T10:00:10.870Z,20.00
2019-02-03T10:01:17.924Z,19.40
2019-02-03T10:02:24.784Z,18.00
2019-02-03T10:03:31.436Z,17.10
2019-02-03T10:04:43.243Z,16.40
2019-02-03T10:05:45.549Z,16.60
2019-02-03T10:06:52.151Z,16.10
2019-02-03T10:07:59.425Z,16.00
2019-02-03T10:09:05.982Z,16.30
2019-02-03T10:10:13.382Z,16.90
2019-02-03T10:11:22.801Z,16.10
2019-02-03T10:12:27.207Z,16.70
2019-02-03T10:13:33.967Z,17.60
2019-02-03T10:14:40.884Z,17.20
2019-02-03T10:15:47.500Z,17.00
2019-02-03T10:16:54.643Z,16.80
2019-02-03T10:18:01.664Z,16.40
2019-02-03T10:19:08.513Z,15.70
2019-02-03T10:20:15.808Z,15.30
2019-02-03T10:21:22.660Z,17.20
2019-02-03T10:22:29.963Z,15.60
2019-02-03T10:23:36.619Z,14.30
2019-02-03T10:24:43.406Z,13.60
2019-02-03T10:25:49.976Z,13.60
2019-02-03T10:26:57.118Z,13.30
2019-02-03T10:28:04.323Z,14.80
2019-02-03T10:29:11.149Z,13.30
2019-02-03T10:30:17.824Z,12.90
2019-02-03T10:31:24.773Z,13.30
2019-02-03T10:32:31.449Z,12.40
2019-02-03T10:33:38.095Z,12.50
2019-02-03T10:34:44.959Z,11.30
2019-02-03T10:35:51.656Z,12.20
2019-02-03T10:36:58.388Z,10.90
2019-02-03T10:38:05.059Z,10.10
2019-02-03T10:39:11.865Z,10.10
2019-02-03T10:40:18.580Z,10.00
2019-02-03T10:41:25.778Z,9.90
2019-02-03T10:42:32.520Z,9.50
2019-02-03T10:43:39.288Z,9.20
2019-02-03T10:44:45.915Z,9.10
2019-02-03T10:45:53.039Z,8.70
2019-02-03T10:46:59.825Z,8.60
2019-02-03T10:48:06.661Z,8.90
2019-02-03T10:49:13.539Z,8.50
2019-02-03T10:50:20.306Z,6.60
2019-02-03T10:51:27.100Z,8.60
2019-02-03T10:52:33.718Z,7.30
2019-02-03T10:53:41.144Z,6.80
2019-02-03T10:54:47.871Z,6.80
2019-02-03T10:55:55.203Z,6.60
2019-02-03T10:57:02.274Z,7.00
2019-02-03T10:58:09.213Z,6.10
2019-02-03T10:59:16.051Z,6.90
2019-02-03T11:00:23.151Z,6.30
2019-02-03T11:01:30.529Z,6.60
2019-02-03T11:02:37.405Z,5.90
2019-02-03T11:03:44.158Z,5.90
2019-02-03T11:04:50.807Z,5.90
2019-02-03T11:05:59.364Z,6.20
2019-02-03T11:07:04.460Z,5.30
2019-02-03T11:08:11.253Z,5.60
2019-02-03T11:09:18.188Z,5.60
2019-02-03T11:10:25.081Z,5.80
2019-02-03T11:12:39.364Z,5.70
2019-02-03T11:13:45.338Z,6.40
2019-02-03T11:14:52.011Z,5.10
2019-02-03T11:15:58.726Z,5.40
2019-02-03T11:17:05.476Z,5.00
2019-02-03T11:18:12.304Z,5.50
2019-02-03T11:19:19.088Z,5.10
2019-02-03T11:20:25.943Z,4.90
2019-02-03T11:21:32.834Z,4.90
2019-02-03T11:22:40.115Z,5.80
2019-02-03T11:23:46.953Z,5.50
2019-02-03T11:24:54.030Z,5.50
2019-02-03T11:26:00.936Z,5.00
2019-02-03T11:27:07.775Z,5.20
2019-02-03T11:28:14.447Z,4.90
2019-02-03T11:29:22.788Z,5.40
2019-02-03T11:30:28.263Z,5.10
2019-02-03T11:31:35.049Z,4.90
2019-02-03T11:32:41.757Z,5.10
2019-02-03T11:33:48.419Z,5.10
2019-02-03T11:34:55.193Z,4.10
2019-02-03T11:36:01.882Z,4.80
2019-02-03T11:37:08.483Z,4.70
2019-02-03T11:38:15.663Z,4.30
2019-02-03T11:39:22.481Z,4.70
2019-02-03T11:40:29.762Z,4.80
2019-02-03T11:41:48.328Z,4.30
2019-02-03T11:42:43.699Z,4.40
2019-02-03T11:43:50.383Z,5.00
2019-02-03T11:44:57.113Z,4.70
2019-02-03T11:46:03.913Z,4.50
2019-02-03T11:47:10.671Z,4.90
2019-02-03T11:48:17.312Z,4.30
2019-02-03T11:49:24.274Z,4.50
2019-02-03T11:50:30.904Z,4.00
2019-02-03T11:51:38.039Z,4.00
2019-02-03T11:52:44.719Z,4.60
2019-02-03T11:53:51.406Z,4.40
2019-02-03T11:54:58.618Z,4.70
2019-02-03T11:56:05.403Z,4.30
2019-02-03T11:57:12.386Z,4.10
2019-02-03T11:58:19.060Z,4.00
2019-02-03T11:59:26.389Z,4.10
2019-02-03T12:00:33.160Z,4.90
2019-02-03T12:01:39.853Z,4.40
2019-02-03T12:02:46.899Z,4.80
2019-02-03T12:03:53.504Z,4.80
2019-02-03T12:05:00.704Z,4.20
2019-02-03T12:06:07.415Z,4.40
2019-02-03T12:07:14.695Z,4.70
2019-02-03T12:08:21.435Z,4.40
2019-02-03T12:09:28.476Z,4.60
2019-02-03T12:10:35.175Z,5.00
2019-02-03T12:11:41.981Z,4.80
2019-02-03T12:12:48.624Z,4.40
2019-02-03T12:13:55.478Z,4.30
2019-02-03T12:15:02.241Z,4.60
2019-02-03T12:16:09.235Z,5.00
2019-02-03T12:17:16.627Z,4.80
2019-02-03T12:18:23.248Z,5.10
2019-02-03T12:19:30.521Z,4.50
2019-02-03T12:20:37.181Z,4.50
2019-02-03T12:21:44.482Z,4.70
2019-02-03T12:22:51.151Z,4.40
2019-02-03T12:23:58.412Z,3.80
2019-02-03T12:25:05.025Z,4.50
2019-02-03T12:26:12.142Z,4.60
2019-02-03T12:27:18.804Z,4.90
2019-02-03T12:28:26.085Z,4.00
2019-02-03T12:29:32.723Z,4.60
2019-02-03T12:30:39.924Z,4.40
2019-02-03T12:31:46.576Z,4.70
2019-02-03T12:32:53.720Z,4.30
2019-02-03T12:34:00.621Z,4.30
2019-02-03T12:35:07.451Z,4.30
2019-02-03T12:36:14.458Z,3.90
2019-02-03T12:37:21.282Z,4.30
2019-02-03T12:38:27.940Z,4.10
2019-02-03T12:39:35.039Z,4.10
2019-02-03T12:40:42.240Z,4.00
2019-02-03T12:41:48.928Z,3.80
2019-02-03T12:42:55.672Z,4.10
2019-02-03T12:44:02.400Z,4.00
2019-02-03T12:45:09.809Z,4.60
2019-02-03T12:46:16.723Z,4.60
2019-02-03T12:47:23.856Z,4.50
2019-02-03T12:48:31.302Z,4.30
2019-02-03T12:49:37.903Z,4.20
2019-02-03T12:50:45.163Z,4.60
2019-02-03T12:51:51.748Z,4.70
2019-02-03T12:53:00.650Z,4.60
2019-02-03T12:54:05.685Z,4.70
2019-02-03T12:55:12.443Z,4.40
2019-02-03T12:56:19.496Z,4.30
2019-02-03T12:57:26.796Z,4.10
2019-02-03T12:58:33.560Z,4.70
2019-02-03T12:59:40.416Z,4.70
2019-02-03T13:00:49.450Z,4.30
2019-02-03T13:01:53.736Z,4.70
2019-02-03T13:03:00.830Z,4.80
2019-02-03T13:04:07.979Z,4.40
2019-02-03T13:05:15.439Z,4.20
2019-02-03T13:06:22.330Z,4.60
2019-02-03T13:07:29.504Z,4.50
2019-02-03T13:08:36.183Z,4.50
2019-02-03T13:09:43.446Z,4.30
2019-02-03T13:10:50.084Z,5.00
2019-02-03T13:11:57.220Z,4.40
2019-02-03T13:13:04.271Z,4.90
2019-02-03T13:14:11.536Z,5.40
2019-02-03T13:15:18.292Z,4.90
2019-02-03T13:16:25.372Z,5.30
2019-02-03T13:17:31.939Z,5.10
2019-02-03T13:18:39.124Z,6.30
2019-02-03T13:19:46.292Z,9.10
2019-02-03T13:20:53.459Z,9.60
2019-02-03T13:22:00.572Z,7.20
2019-02-03T13:23:07.310Z,7.00
2019-02-03T13:24:14.172Z,5.70
2019-02-03T13:25:20.867Z,5.10
2019-02-03T13:26:27.720Z,4.50
2019-02-03T13:27:34.342Z,4.10
2019-02-03T13:28:41.739Z,4.60
2019-02-03T13:29:48.395Z,4.80
2019-02-03T13:30:55.671Z,4.30
2019-02-03T13:32:10.339Z,5.20
2019-02-03T13:33:09.111Z,5.00
2019-02-03T13:34:16.106Z,4.90
2019-02-03T13:35:22.951Z,5.20
2019-02-03T13:36:30.927Z,4.50
2019-02-03T13:37:39.670Z,4.70
2019-02-03T13:38:43.452Z,4.40
2019-02-03T13:39:50.041Z,4.90
2019-02-03T13:40:57.256Z,5.00
2019-02-03T13:42:04.028Z,5.20
2019-02-03T13:43:10.811Z,5.00
2019-02-03T13:44:20.894Z,5.10
2019-02-03T13:45:24.370Z,5.20
2019-02-03T13:46:31.196Z,5.30
2019-02-03T13:47:38.005Z,4.70
2019-02-03T13:48:45.279Z,4.40
2019-02-03T13:49:51.944Z,4.20
2019-02-03T13:50:59.187Z,4.80
2019-02-03T13:52:06.262Z,4.40
2019-02-03T13:53:13.168Z,4.60
2019-02-03T13:54:20.064Z,4.80
2019-02-03T13:55:26.999Z,4.40
2019-02-03T13:56:33.656Z,4.50
2019-02-03T13:57:40.944Z,4.10
2019-02-03T13:58:47.717Z,4.40
2019-02-03T13:59:54.477Z,4.70
2019-02-03T14:01:01.117Z,4.40
2019-02-03T14:02:07.983Z,4.50
2019-02-03T14:03:15.090Z,4.70
2019-02-03T14:04:21.658Z,4.20
2019-02-03T14:05:28.887Z,4.60
2019-02-03T14:06:35.656Z,4.60
2019-02-03T14:07:42.347Z,4.00
2019-02-03T14:08:49.252Z,3.90
2019-02-03T14:09:56.019Z,3.80
2019-02-03T14:11:02.792Z,4.50
2019-02-03T14:12:09.735Z,4.20
2019-02-03T14:13:16.368Z,4.70
2019-02-03T14:14:25.389Z,4.70
2019-02-03T14:15:30.825Z,4.40
2019-02-03T14:16:37.499Z,4.60
2019-02-03T14:17:44.747Z,4.90
2019-02-03T14:18:51.570Z,4.50
2019-02-03T14:19:58.299Z,4.30
2019-02-03T14:21:05.036Z,4.20
2019-02-03T14:22:11.950Z,4.60
2019-02-03T14:23:18.740Z,4.30
2019-02-03T14:24:25.555Z,4.10
2019-02-03T14:25:32.142Z,4.70
2019-02-03T14:26:40.612Z,3.90
2019-02-03T14:27:46.360Z,3.90
2019-02-03T14:28:53.128Z,3.90
2019-02-03T14:29:59.913Z,3.90
2019-02-03T14:31:08.575Z,4.30
2019-02-03T14:32:13.812Z,4.30
2019-02-03T14:33:20.609Z,3.90
2019-02-03T14:34:27.731Z,3.90